createdAt,value
2022-12-04T00:03:55.663Z,165.50
2022-12-04T00:07:57.563Z,179.63
2022-12-04T00:11:59.620Z,200.38
2022-12-04T00:16:03.294Z,194.77
2022-12-04T00:20:05.690Z,207.50
2022-12-04T00:24:07.779Z,181.88
2022-12-04T00:28:09.520Z,183.85
2022-12-04T00:32:11.468Z,162.50
2022-12-04T00:36:16.291Z,180.23
2022-12-04T00:40:18.004Z,178.98
2022-12-04T00:44:19.958Z,153.63
2022-12-04T00:48:21.676Z,173.63
2022-12-04T00:52:23.597Z,170.38
2022-12-04T00:56:27.814Z,158.95
2022-12-04T01:00:30.376Z,170.73
2022-12-04T01:04:31.970Z,154.40
2022-12-04T01:08:34.866Z,161.77
2022-12-04T01:12:36.861Z,167.50
2022-12-04T01:16:39.898Z,159.40
2022-12-04T01:20:48.704Z,156.27
2022-12-04T01:24:50.771Z,155.02
2022-12-04T01:28:52.730Z,158.77
2022-12-04T01:32:54.400Z,166.80
2022-12-04T01:36:56.360Z,180.18
2022-12-04T01:40:58.200Z,178.02
2022-12-04T01:45:33.954Z,161.48
2022-12-04T01:49:39.555Z,175.35
2022-12-04T01:53:46.917Z,150.30
2022-12-04T01:57:48.766Z,153.77
2022-12-04T02:02:02.437Z,145.77
2022-12-04T02:06:05.234Z,143.18
2022-12-04T02:10:09.194Z,128.05
2022-12-04T02:14:30.182Z,137.65
2022-12-04T02:18:46.485Z,135.63
2022-12-04T02:23:19.476Z,124.97
2022-12-04T02:27:42.303Z,124.22
2022-12-04T02:31:48.284Z,124.70
2022-12-04T02:36:16.101Z,136.45
2022-12-04T02:40:26.330Z,123.83
2022-12-04T02:44:42.192Z,133.88
2022-12-04T02:48:48.337Z,132.20
2022-12-04T02:52:59.767Z,128.65
2022-12-04T02:57:04.579Z,122.65
2022-12-04T03:01:19.592Z,140.88
2022-12-04T03:05:27.356Z,118.15
2022-12-04T03:09:39.546Z,126.77
2022-12-04T03:13:57.586Z,139.15
2022-12-04T03:18:41.974Z,151.20
2022-12-04T03:22:50.293Z,148.35
2022-12-04T03:27:28.863Z,139.52
2022-12-04T03:31:39.954Z,138.45
2022-12-04T03:36:06.243Z,133.60
2022-12-04T03:40:22.812Z,132.60
2022-12-04T03:44:35.461Z,133.90
2022-12-04T03:49:02.834Z,135.38
2022-12-04T03:53:22.428Z,122.07
2022-12-04T03:57:30.415Z,130.00
2022-12-04T04:05:43.868Z,147.13
2022-12-04T04:09:49.316Z,152.90
2022-12-04T04:14:14.218Z,162.82
2022-12-04T04:18:48.631Z,153.50
2022-12-04T04:23:13.764Z,165.45
2022-12-04T04:27:15.615Z,159.07
2022-12-04T04:31:36.523Z,156.88
2022-12-04T04:35:53.055Z,148.88
2022-12-04T04:40:06.406Z,128.10
2022-12-04T04:44:39.387Z,128.07
2022-12-04T04:48:46.525Z,136.43
2022-12-04T04:52:53.526Z,114.75
2022-12-04T04:56:55.664Z,119.47
2022-12-04T05:01:01.421Z,126.65
2022-12-04T05:05:04.170Z,114.32
2022-12-04T05:09:05.922Z,111.07
2022-12-04T05:13:09.448Z,110.28
2022-12-04T05:17:12.940Z,116.82
2022-12-04T05:21:17.761Z,116.53
2022-12-04T05:25:19.518Z,106.70
2022-12-04T05:29:21.430Z,117.43
2022-12-04T05:33:23.185Z,124.00
2022-12-04T05:37:25.520Z,119.85
2022-12-04T05:41:27.144Z,109.15
2022-12-04T05:45:29.137Z,111.45
2022-12-04T05:49:32.334Z,119.07
2022-12-04T05:53:34.565Z,113.63
2022-12-04T05:57:36.205Z,118.40
2022-12-04T06:01:38.232Z,117.90
2022-12-04T06:05:39.823Z,116.50
2022-12-04T06:09:41.751Z,129.40
2022-12-04T06:13:45.586Z,119.38
2022-12-04T06:17:47.513Z,115.30
2022-12-04T06:21:52.384Z,119.13
2022-12-04T06:25:56.167Z,112.50
2022-12-04T06:29:58.537Z,123.78
2022-12-04T06:34:00.910Z,121.78
2022-12-04T06:38:02.520Z,118.57
2022-12-04T06:42:04.490Z,129.80
2022-12-04T06:46:15.215Z,113.38
2022-12-04T06:50:17.341Z,114.18
2022-12-04T06:54:19.226Z,103.65
2022-12-04T06:58:20.958Z,121.18
2022-12-04T07:02:22.978Z,110.15
2022-12-04T07:06:28.119Z,100.90
2022-12-04T07:10:29.859Z,89.93
2022-12-04T07:14:32.227Z,108.65
2022-12-04T07:18:35.887Z,105.32
2022-12-04T07:22:37.733Z,103.72
2022-12-04T07:26:39.674Z,105.97
2022-12-04T07:30:41.346Z,115.57
2022-12-04T07:34:43.282Z,124.13
2022-12-04T07:38:46.135Z,107.32
2022-12-04T07:42:47.921Z,107.32
2022-12-04T07:46:49.837Z,101.47
2022-12-04T07:51:04.002Z,101.68
2022-12-04T07:55:07.058Z,100.35
2022-12-04T07:59:09.012Z,97.97
2022-12-04T08:03:10.907Z,101.90
2022-12-04T08:07:12.532Z,108.50
2022-12-04T08:11:17.418Z,100.68
2022-12-04T08:15:19.115Z,90.90
2022-12-04T08:19:21.386Z,98.85
2022-12-04T08:23:23.436Z,99.95
2022-12-04T08:27:25.114Z,91.30
2022-12-04T08:31:29.812Z,89.20
2022-12-04T08:35:31.484Z,92.53
2022-12-04T08:39:33.366Z,96.15
2022-12-04T08:43:35.323Z,95.05
2022-12-04T08:47:37.143Z,90.22
2022-12-04T08:51:39.502Z,86.68
2022-12-04T08:55:41.470Z,85.38
2022-12-04T08:59:43.174Z,82.68
2022-12-04T09:03:45.283Z,82.63
2022-12-04T09:07:46.921Z,74.45
2022-12-04T09:11:49.110Z,81.32
2022-12-04T09:15:51.131Z,76.13
2022-12-04T09:19:55.552Z,79.55
2022-12-04T09:24:01.290Z,88.10
2022-12-04T09:28:04.528Z,70.97
2022-12-04T09:32:06.206Z,86.95
2022-12-04T09:36:08.414Z,75.72
2022-12-04T09:40:23.968Z,76.35
2022-12-04T09:44:39.358Z,79.65
2022-12-04T09:48:44.300Z,81.38
2022-12-04T09:53:06.431Z,74.85
2022-12-04T09:57:25.653Z,64.95
2022-12-04T10:01:39.403Z,72.32
2022-12-04T10:05:53.246Z,66.28
2022-12-04T10:10:46.938Z,67.93
2022-12-04T10:15:06.667Z,72.30
2022-12-04T10:19:42.473Z,65.75
2022-12-04T10:23:55.782Z,60.60
2022-12-04T10:28:26.330Z,70.00
2022-12-04T10:32:35.269Z,65.07
2022-12-04T10:36:37.286Z,67.93
2022-12-04T10:40:48.965Z,65.40
2022-12-04T10:44:51.737Z,69.95
2022-12-04T10:49:01.567Z,59.20
2022-12-04T10:53:03.588Z,62.65
2022-12-04T10:57:11.568Z,64.72
2022-12-04T11:01:15.591Z,74.05
2022-12-04T11:05:28.138Z,68.57
2022-12-04T11:09:30.446Z,66.57
2022-12-04T11:13:32.738Z,68.65
2022-12-04T11:17:34.505Z,68.30
2022-12-04T11:21:38.576Z,70.75
2022-12-04T11:25:47.267Z,66.90
2022-12-04T11:29:50.024Z,66.40
2022-12-04T11:33:58.348Z,68.30
2022-12-04T11:38:08.553Z,75.43
2022-12-04T11:42:13.041Z,68.35
2022-12-04T11:46:23.921Z,69.65
2022-12-04T11:50:40.950Z,70.47
2022-12-04T11:55:00.326Z,66.93
2022-12-04T11:59:13.203Z,75.68
2022-12-04T12:03:30.947Z,72.03
2022-12-04T12:08:02.439Z,68.43
2022-12-04T12:12:17.474Z,69.88
2022-12-04T12:16:29.333Z,67.25
2022-12-04T12:21:00.325Z,63.90
2022-12-04T12:25:22.213Z,70.22
2022-12-04T12:29:37.809Z,73.38
2022-12-04T12:33:46.687Z,75.03
2022-12-04T12:37:55.998Z,65.22
2022-12-04T12:42:01.054Z,60.72
2022-12-04T12:46:12.523Z,73.72
2022-12-04T12:50:38.061Z,69.60
2022-12-04T12:54:49.126Z,67.60
2022-12-04T12:58:57.662Z,75.22
2022-12-04T13:03:44.477Z,80.60
2022-12-04T13:07:58.624Z,82.03
2022-12-04T13:12:08.491Z,71.07
2022-12-04T13:16:31.198Z,75.70
2022-12-04T13:20:43.155Z,73.18
2022-12-04T13:24:50.691Z,82.00
2022-12-04T13:29:17.872Z,74.32
2022-12-04T13:33:38.151Z,70.25
2022-12-04T13:38:33.017Z,69.32
2022-12-04T13:42:35.306Z,72.30
2022-12-04T13:46:50.205Z,58.65
2022-12-04T13:51:02.118Z,60.72
2022-12-04T13:55:04.024Z,62.90
2022-12-04T13:59:21.496Z,64.65
2022-12-04T14:03:48.244Z,64.22
2022-12-04T14:08:07.935Z,57.50
2022-12-04T14:12:14.002Z,54.60
2022-12-04T14:16:22.796Z,57.72
2022-12-04T14:20:27.440Z,56.53
2022-12-04T14:24:38.990Z,55.53
2022-12-04T14:28:42.666Z,50.75
2022-12-04T14:32:46.902Z,61.70
2022-12-04T14:36:54.600Z,63.40
2022-12-04T14:40:58.197Z,54.40
2022-12-04T14:45:02.493Z,58.35
2022-12-04T14:49:27.240Z,53.47
2022-12-04T14:53:38.986Z,55.28
2022-12-04T14:57:49.634Z,58.83
2022-12-04T15:01:54.920Z,57.90
2022-12-04T15:06:06.866Z,64.07
2022-12-04T15:10:47.271Z,61.05
2022-12-04T15:14:50.104Z,62.58
2022-12-04T15:19:00.403Z,64.97
2022-12-04T15:23:03.536Z,61.50
2022-12-04T15:27:07.024Z,63.38
2022-12-04T15:31:17.418Z,60.83
2022-12-04T15:35:25.336Z,65.85
2022-12-04T15:43:42.192Z,65.22
2022-12-04T15:47:44.330Z,62.25
2022-12-04T15:51:47.544Z,56.53
2022-12-04T15:55:57.502Z,54.83
2022-12-04T16:00:02.821Z,58.58
2022-12-04T16:04:20.147Z,57.92
2022-12-04T16:08:31.220Z,51.55
2022-12-04T16:12:33.423Z,59.42
2022-12-04T16:16:37.129Z,63.92
2022-12-04T16:20:39.957Z,56.22
2022-12-04T16:24:41.975Z,51.53
2022-12-04T16:28:44.366Z,56.30
2022-12-04T16:32:46.105Z,54.75
2022-12-04T16:36:48.085Z,50.05
2022-12-04T16:40:50.030Z,50.47
2022-12-04T16:44:52.245Z,51.60
2022-12-04T16:48:54.622Z,56.40
2022-12-04T16:52:56.354Z,55.85
2022-12-04T16:56:58.572Z,54.97
2022-12-04T17:01:00.451Z,54.63
2022-12-04T17:05:02.713Z,55.35
2022-12-04T17:09:05.503Z,58.70
2022-12-04T17:13:07.459Z,60.92
2022-12-04T17:17:09.158Z,63.10
2022-12-04T17:21:13.357Z,59.67
2022-12-04T17:25:16.470Z,53.42
2022-12-04T17:29:18.378Z,58.72
2022-12-04T17:33:20.298Z,54.67
2022-12-04T17:37:22.211Z,53.95
2022-12-04T17:41:24.815Z,49.45
2022-12-04T17:45:27.023Z,47.03
2022-12-04T17:49:28.828Z,48.58
2022-12-04T17:53:30.754Z,48.83
2022-12-04T17:57:32.703Z,53.00
2022-12-04T18:01:34.884Z,46.80
2022-12-04T18:05:36.672Z,45.15
2022-12-04T18:09:38.832Z,46.47
2022-12-04T18:13:40.465Z,42.08
2022-12-04T18:17:42.352Z,44.47
2022-12-04T18:21:44.476Z,48.08
2022-12-04T18:25:55.442Z,46.03
2022-12-04T18:29:57.726Z,41.28
2022-12-04T18:34:00.002Z,43.72
2022-12-04T18:38:01.636Z,43.47
2022-12-04T18:42:03.714Z,46.35
2022-12-04T18:46:08.521Z,43.47
2022-12-04T18:50:10.466Z,53.53
2022-12-04T18:54:15.716Z,52.40
2022-12-04T18:58:17.754Z,44.33
2022-12-04T19:02:19.775Z,46.55
2022-12-04T19:06:21.596Z,42.53
2022-12-04T19:10:24.291Z,51.88
2022-12-04T19:14:26.506Z,44.38
2022-12-04T19:18:29.796Z,48.70
2022-12-04T19:22:31.515Z,49.25
2022-12-04T19:26:34.453Z,43.30
2022-12-04T19:30:36.034Z,54.35
2022-12-04T19:34:38.118Z,46.60
2022-12-04T19:38:40.450Z,51.60
2022-12-04T19:42:42.411Z,48.85
2022-12-04T19:46:44.090Z,50.03
2022-12-04T19:50:45.992Z,47.15
2022-12-04T19:54:47.631Z,51.00
2022-12-04T19:58:49.627Z,57.67
2022-12-04T20:02:51.433Z,47.30
2022-12-04T20:06:53.539Z,49.47
2022-12-04T20:10:55.197Z,47.30
2022-12-04T20:14:57.475Z,46.08
2022-12-04T20:19:01.140Z,49.50
2022-12-04T20:23:03.047Z,46.13
2022-12-04T20:27:05.008Z,46.08
2022-12-04T20:31:28.284Z,43.90
2022-12-04T20:35:30.526Z,47.38
2022-12-04T20:39:32.609Z,46.13
2022-12-04T20:43:34.761Z,49.20
2022-12-04T20:47:37.273Z,46.20
2022-12-04T20:51:41.805Z,46.55
2022-12-04T20:55:52.902Z,49.22
2022-12-04T20:59:55.011Z,51.42
2022-12-04T21:03:58.897Z,48.78
2022-12-04T21:08:00.785Z,52.25
2022-12-04T21:12:03.766Z,48.80
2022-12-04T21:16:07.108Z,53.08
2022-12-04T21:20:10.132Z,47.97
2022-12-04T21:24:15.230Z,47.35
2022-12-04T21:28:16.877Z,40.75
2022-12-04T21:32:19.697Z,41.45
2022-12-04T21:36:21.986Z,37.38
2022-12-04T21:40:23.936Z,40.80
2022-12-04T21:44:25.917Z,39.92
2022-12-04T21:48:28.065Z,48.90
2022-12-04T21:52:30.135Z,40.95
2022-12-04T21:56:32.017Z,41.33
2022-12-04T22:00:33.965Z,47.10
2022-12-04T22:04:35.582Z,38.75
2022-12-04T22:08:39.897Z,43.15
2022-12-04T22:12:49.423Z,44.72
2022-12-04T22:16:53.073Z,41.13
2022-12-04T22:20:54.942Z,43.03
2022-12-04T22:24:57.955Z,46.55
2022-12-04T22:29:01.153Z,40.42
2022-12-04T22:33:03.179Z,39.63
2022-12-04T22:37:05.109Z,43.60
2022-12-04T22:41:10.650Z,40.70
2022-12-04T22:45:13.030Z,36.47
2022-12-04T22:49:15.055Z,40.35
2022-12-04T22:53:16.719Z,43.55
2022-12-04T22:57:18.898Z,40.70
2022-12-04T23:01:24.390Z,38.80
2022-12-04T23:05:26.377Z,38.85
2022-12-04T23:09:28.107Z,46.47
2022-12-04T23:13:30.304Z,45.38
2022-12-04T23:17:31.969Z,41.55
2022-12-04T23:21:34.960Z,48.40
2022-12-04T23:25:41.178Z,50.08
2022-12-04T23:29:53.861Z,45.45
2022-12-04T23:33:55.740Z,47.38
2022-12-04T23:37:57.744Z,47.40
2022-12-04T23:41:59.368Z,45.47
2022-12-04T23:46:05.748Z,44.72
2022-12-04T23:50:11.083Z,46.95
2022-12-04T23:54:13.071Z,47.03
2022-12-04T23:58:14.678Z,46.78
